Lake Sawyer, Washington
Current Conditions -  °F | °C
As of 2:53 AM on Friday 19 Dec 2014 (Local Time) from KSEA Reporting Station
Overcast Overcast  
Wind Chill: 44°   Ceiling: 2900
Heat Index: 47°   Visibility: 10mi
Dew Point: 44°   Wind: 6mph
Humidity: 90%   Direction: 170°S
Pressure: 29.82"   Gusts: NA
Location:  47.3596°N, 122.107°W
Report Text: KSEA 191053Z 17005KT 10SM BKN029 OVC035 08/07 A2982 RMK AO2 RAE23 SLP106 P0001 T00830067
Loading
Personal Weather Stations






























Interactive Weather Map New forecast layout! Learn more

10-Day Weather Forecast

Advertisements
Track Severe Weather on mobile